createdAt,value
2019-03-12T00:01:21.157Z,2.96
2019-03-12T00:03:51.979Z,2.95
2019-03-12T00:06:22.925Z,2.94
2019-03-12T00:08:53.527Z,2.90
2019-03-12T00:11:24.263Z,2.86
2019-03-12T00:13:54.930Z,2.81
2019-03-12T00:16:26.032Z,2.76
2019-03-12T00:18:56.779Z,2.69
2019-03-12T00:21:27.399Z,2.72
2019-03-12T00:23:58.467Z,2.66
2019-03-12T00:26:29.098Z,2.63
2019-03-12T00:28:59.772Z,2.59
2019-03-12T00:31:31.063Z,2.57
2019-03-12T00:34:01.879Z,2.54
2019-03-12T00:36:32.643Z,2.52
2019-03-12T00:39:03.787Z,2.54
2019-03-12T00:41:36.607Z,2.57
2019-03-12T00:44:07.564Z,2.61
2019-03-12T00:46:38.471Z,2.63
2019-03-12T00:49:09.303Z,2.64
2019-03-12T00:51:40.127Z,2.74
2019-03-12T00:54:11.023Z,2.72
2019-03-12T00:56:41.903Z,2.73
2019-03-12T00:59:12.674Z,2.76
2019-03-12T01:01:43.472Z,2.76
2019-03-12T01:04:14.116Z,2.74
2019-03-12T01:06:45.009Z,2.74
2019-03-12T01:09:15.876Z,2.75
2019-03-12T01:11:46.581Z,2.77
2019-03-12T01:14:17.764Z,2.79
2019-03-12T01:16:48.590Z,2.84
2019-03-12T01:19:19.479Z,2.87
2019-03-12T01:21:50.335Z,2.86
2019-03-12T01:24:21.209Z,2.88
2019-03-12T01:26:51.936Z,2.89
2019-03-12T01:29:22.720Z,2.90
2019-03-12T01:31:53.511Z,2.95
2019-03-12T01:34:24.671Z,3.00
2019-03-12T01:36:55.595Z,3.07
2019-03-12T01:39:26.396Z,3.11
2019-03-12T01:41:57.180Z,3.25
2019-03-12T01:44:27.869Z,3.31
2019-03-12T01:46:58.762Z,3.30
2019-03-12T01:49:29.431Z,3.36
2019-03-12T01:52:00.217Z,3.44
2019-03-12T01:54:31.136Z,3.41
2019-03-12T01:57:02.013Z,3.47
2019-03-12T01:59:32.942Z,3.45
2019-03-12T02:02:03.822Z,3.47
2019-03-12T02:04:34.647Z,3.47
2019-03-12T02:07:05.211Z,3.50
2019-03-12T02:09:35.911Z,3.52
2019-03-12T02:12:06.823Z,3.55
2019-03-12T02:14:37.556Z,3.61
2019-03-12T02:17:08.255Z,3.57
2019-03-12T02:19:39.156Z,3.59
2019-03-12T02:22:09.923Z,3.59
2019-03-12T02:24:52.282Z,3.56
2019-03-12T02:27:13.510Z,3.54
2019-03-12T02:29:44.224Z,3.51
2019-03-12T02:32:15.065Z,3.45
2019-03-12T02:34:45.954Z,3.38
2019-03-12T02:37:16.846Z,3.33
2019-03-12T02:39:47.591Z,3.36
2019-03-12T02:42:18.273Z,3.32
2019-03-12T02:44:49.083Z,3.34
2019-03-12T02:47:19.633Z,3.29
2019-03-12T02:49:50.426Z,3.22
2019-03-12T02:52:21.505Z,3.14
2019-03-12T02:54:52.228Z,3.15
2019-03-12T02:57:23.177Z,3.09
2019-03-12T02:59:54.108Z,3.06
2019-03-12T03:02:24.983Z,3.02
2019-03-12T03:04:56.016Z,2.95
2019-03-12T03:07:44.409Z,2.94
2019-03-12T03:10:15.701Z,2.79
2019-03-12T03:12:46.583Z,2.68
2019-03-12T03:15:19.398Z,2.68
2019-03-12T03:17:50.237Z,2.68
2019-03-12T03:20:21.271Z,2.66
2019-03-12T03:22:51.978Z,2.61
2019-03-12T03:25:22.872Z,2.56
2019-03-12T03:27:53.550Z,2.54
2019-03-12T03:30:25.019Z,2.48
2019-03-12T03:32:56.002Z,2.44
2019-03-12T03:35:26.771Z,2.46
2019-03-12T03:37:57.710Z,2.44
2019-03-12T03:40:28.623Z,2.41
2019-03-12T03:42:59.624Z,2.36
2019-03-12T03:45:31.288Z,2.30
2019-03-12T03:48:02.224Z,2.31
2019-03-12T03:50:33.509Z,2.30
2019-03-12T03:53:04.373Z,2.21
2019-03-12T03:55:35.184Z,2.25
2019-03-12T03:58:05.986Z,2.17
2019-03-12T04:00:36.941Z,2.16
2019-03-12T04:03:07.719Z,2.18
2019-03-12T04:05:38.485Z,2.12
2019-03-12T04:08:10.345Z,2.12
2019-03-12T04:10:41.215Z,2.03
2019-03-12T04:13:11.986Z,2.08
2019-03-12T04:15:43.017Z,2.13
2019-03-12T04:18:13.710Z,2.05
2019-03-12T04:20:44.459Z,2.03
2019-03-12T04:23:16.217Z,2.01
2019-03-12T04:25:47.182Z,2.03
2019-03-12T04:28:17.908Z,2.04
2019-03-12T04:30:48.689Z,2.01
2019-03-12T04:33:55.171Z,1.95
2019-03-12T04:36:27.021Z,1.94
2019-03-12T04:38:57.906Z,1.90
2019-03-12T04:41:28.762Z,1.90
2019-03-12T04:43:59.710Z,1.85
2019-03-12T04:46:30.438Z,1.88
2019-03-12T04:49:01.339Z,1.85
2019-03-12T04:51:32.175Z,1.78
2019-03-12T04:54:03.079Z,1.77
2019-03-12T04:56:33.851Z,1.76
2019-03-12T04:59:04.719Z,1.77
2019-03-12T05:01:35.490Z,1.74
2019-03-12T05:04:06.388Z,1.75
2019-03-12T05:06:37.259Z,1.70
2019-03-12T05:09:09.535Z,1.67
2019-03-12T05:11:40.519Z,1.61
2019-03-12T05:14:43.461Z,1.55
2019-03-12T05:17:28.330Z,1.51
2019-03-12T05:19:59.140Z,1.50
2019-03-12T05:22:29.903Z,1.48
2019-03-12T05:25:00.697Z,1.50
2019-03-12T05:27:31.666Z,1.49
2019-03-12T05:30:02.442Z,1.30
2019-03-12T05:32:34.578Z,1.19
2019-03-12T05:35:05.955Z,1.13
2019-03-12T05:37:36.827Z,1.16
2019-03-12T05:40:08.232Z,1.24
2019-03-12T05:42:39.109Z,1.29
2019-03-12T05:45:10.198Z,1.24
2019-03-12T05:47:40.984Z,1.30
2019-03-12T05:50:12.082Z,1.38
2019-03-12T05:52:42.899Z,1.40
2019-03-12T05:55:14.648Z,1.44
2019-03-12T05:57:45.523Z,1.52
2019-03-12T06:00:16.807Z,1.55
2019-03-12T06:02:47.824Z,1.58
2019-03-12T06:05:18.687Z,1.61
2019-03-12T06:07:49.789Z,1.68
2019-03-12T06:10:20.509Z,1.68
2019-03-12T06:12:51.192Z,1.72
2019-03-12T06:15:22.186Z,1.71
2019-03-12T06:17:52.898Z,1.67
2019-03-12T06:20:23.572Z,1.66
2019-03-12T06:22:54.486Z,1.74
2019-03-12T06:25:25.648Z,1.77
2019-03-12T06:27:56.315Z,1.81
2019-03-12T06:30:28.579Z,1.88
2019-03-12T06:33:05.192Z,1.93
2019-03-12T06:35:43.131Z,1.99
2019-03-12T06:38:32.035Z,2.11
2019-03-12T06:41:08.374Z,2.19
2019-03-12T06:43:53.392Z,2.34
2019-03-12T06:46:45.448Z,2.49
2019-03-12T06:49:38.048Z,2.66
2019-03-12T06:52:26.353Z,2.73
2019-03-12T06:55:15.098Z,2.82
2019-03-12T06:58:27.288Z,2.82
2019-03-12T07:01:22.897Z,2.81
2019-03-12T07:04:13.514Z,2.82
2019-03-12T07:07:12.839Z,2.79
2019-03-12T07:10:02.705Z,2.80
2019-03-12T07:12:57.439Z,2.77
2019-03-12T07:15:36.106Z,2.64
2019-03-12T07:18:14.458Z,2.56
2019-03-12T07:21:13.171Z,2.61
2019-03-12T07:24:18.152Z,2.61
2019-03-12T07:27:02.733Z,2.66
2019-03-12T07:29:55.203Z,2.74
2019-03-12T07:32:47.727Z,2.91
2019-03-12T07:35:52.415Z,3.02
2019-03-12T07:38:35.267Z,3.15
2019-03-12T07:41:25.171Z,3.39
2019-03-12T07:44:15.006Z,3.50
2019-03-12T07:47:10.713Z,3.57
2019-03-12T07:50:02.033Z,3.67
2019-03-12T07:53:00.700Z,3.76
2019-03-12T07:55:46.255Z,3.86
2019-03-12T07:58:44.923Z,3.92
2019-03-12T08:01:33.597Z,4.04
2019-03-12T08:04:26.551Z,4.13
2019-03-12T08:07:13.185Z,4.25
2019-03-12T08:09:51.210Z,4.38
2019-03-12T08:12:41.049Z,4.48
2019-03-12T08:15:23.414Z,4.48
2019-03-12T08:18:13.035Z,4.74
2019-03-12T08:21:07.473Z,4.93
2019-03-12T08:23:56.814Z,4.86
2019-03-12T08:26:38.842Z,4.89
2019-03-12T08:29:37.734Z,5.22
2019-03-12T08:32:14.300Z,5.25
2019-03-12T08:35:03.399Z,5.33
2019-03-12T08:37:44.850Z,5.48
2019-03-12T08:40:34.489Z,5.55
2019-03-12T08:43:13.965Z,5.69
2019-03-12T08:45:53.403Z,5.76
2019-03-12T08:48:43.101Z,5.89
2019-03-12T08:51:30.718Z,6.23
2019-03-12T08:54:23.614Z,6.29
2019-03-12T08:57:14.059Z,6.27
2019-03-12T09:00:15.815Z,6.53
2019-03-12T09:02:59.608Z,6.65
2019-03-12T09:05:52.164Z,6.84
2019-03-12T09:08:39.481Z,7.28
2019-03-12T09:11:29.136Z,7.50
2019-03-12T09:14:37.220Z,7.72
2019-03-12T09:17:24.235Z,7.90
2019-03-12T09:20:19.341Z,8.05
2019-03-12T09:23:14.847Z,8.15
2019-03-12T09:26:13.403Z,8.46
2019-03-12T09:28:53.643Z,8.71
2019-03-12T09:31:33.441Z,8.76
2019-03-12T09:34:18.350Z,8.73
2019-03-12T09:37:07.998Z,8.57
2019-03-12T09:39:48.189Z,8.55
2019-03-12T09:42:37.935Z,8.59
2019-03-12T09:45:19.610Z,8.74
2019-03-12T09:48:15.429Z,8.89
2019-03-12T09:51:11.113Z,8.87
2019-03-12T09:53:54.377Z,8.73
2019-03-12T09:56:37.032Z,8.63
2019-03-12T09:59:26.787Z,8.58
2019-03-12T10:02:25.479Z,8.74
2019-03-12T10:05:02.651Z,8.71
2019-03-12T10:08:07.588Z,8.66
2019-03-12T10:10:54.298Z,8.76
2019-03-12T10:13:37.945Z,8.90
2019-03-12T10:16:42.894Z,9.03
2019-03-12T10:19:50.569Z,9.27
2019-03-12T10:22:38.727Z,9.53
2019-03-12T10:25:27.746Z,9.56
2019-03-12T10:28:18.932Z,9.44
2019-03-12T10:31:14.713Z,9.51
2019-03-12T10:34:10.526Z,9.46
2019-03-12T10:36:46.574Z,9.42
2019-03-12T10:40:25.028Z,9.43
2019-03-12T10:43:11.300Z,9.25
2019-03-12T10:46:01.530Z,9.35
2019-03-12T10:48:33.122Z,9.36
2019-03-12T10:51:04.038Z,9.53
2019-03-12T10:53:36.131Z,9.72
2019-03-12T10:56:06.846Z,9.77
2019-03-12T10:58:37.721Z,9.65
2019-03-12T11:01:08.620Z,9.80
2019-03-12T11:03:39.538Z,9.75
2019-03-12T11:06:10.610Z,9.95
2019-03-12T11:08:41.407Z,10.02
2019-03-12T11:11:12.166Z,9.99
2019-03-12T11:13:43.236Z,10.04
2019-03-12T11:16:13.977Z,10.23
2019-03-12T11:18:44.771Z,10.48
2019-03-12T11:21:15.522Z,10.41
2019-03-12T11:23:46.724Z,10.70
2019-03-12T11:26:17.492Z,10.89
2019-03-12T11:28:48.269Z,10.91
2019-03-12T11:31:19.309Z,11.06
2019-03-12T11:33:50.240Z,10.87
2019-03-12T11:36:21.129Z,11.06
2019-03-12T11:38:52.018Z,11.13
2019-03-12T11:41:23.087Z,11.23
2019-03-12T11:43:53.861Z,11.28
2019-03-12T11:46:24.821Z,11.10
2019-03-12T11:48:55.668Z,11.03
2019-03-12T11:51:26.602Z,11.07
2019-03-12T11:53:57.312Z,11.00
2019-03-12T11:56:28.255Z,11.21
2019-03-12T11:58:58.882Z,11.51
2019-03-12T12:01:30.317Z,11.58
2019-03-12T12:04:01.165Z,11.51
2019-03-12T12:06:31.925Z,11.57
2019-03-12T12:09:02.913Z,11.54
2019-03-12T12:11:35.364Z,11.58
2019-03-12T12:14:06.284Z,11.32
2019-03-12T12:16:37.271Z,11.48
2019-03-12T12:19:08.323Z,11.51
2019-03-12T12:21:39.399Z,11.56
2019-03-12T12:24:10.111Z,11.41
2019-03-12T12:26:41.006Z,11.64
2019-03-12T12:29:11.886Z,11.66
2019-03-12T12:31:42.867Z,11.65
2019-03-12T12:34:13.559Z,11.70
2019-03-12T12:36:44.338Z,11.84
2019-03-12T12:39:15.028Z,11.84
2019-03-12T12:41:45.906Z,11.81
2019-03-12T12:44:16.623Z,11.93
2019-03-12T12:46:47.516Z,12.11
2019-03-12T12:49:18.408Z,12.10
2019-03-12T12:51:49.545Z,12.22
2019-03-12T12:54:20.261Z,12.30
2019-03-12T12:56:51.227Z,12.39
2019-03-12T12:59:22.052Z,12.51
2019-03-12T13:01:53.576Z,12.62
2019-03-12T13:04:24.465Z,12.46
2019-03-12T13:06:55.320Z,12.37
2019-03-12T13:09:26.080Z,12.14
2019-03-12T13:11:57.351Z,11.97
2019-03-12T13:14:40.722Z,12.03
2019-03-12T13:17:00.507Z,12.08
2019-03-12T13:19:31.445Z,12.04
2019-03-12T13:22:02.275Z,12.04
2019-03-12T13:24:33.049Z,12.22
2019-03-12T13:27:04.239Z,12.36
2019-03-12T13:29:35.159Z,12.53
2019-03-12T13:32:13.488Z,12.48
2019-03-12T13:34:38.819Z,12.54
2019-03-12T13:37:09.686Z,12.75
2019-03-12T13:39:40.497Z,12.85
2019-03-12T13:42:11.156Z,12.82
2019-03-12T13:44:41.837Z,12.59
2019-03-12T13:47:12.798Z,12.58
2019-03-12T13:49:43.588Z,12.59
2019-03-12T13:52:14.520Z,12.72
2019-03-12T13:54:45.381Z,12.59
2019-03-12T13:57:16.247Z,12.41
2019-03-12T13:59:47.056Z,12.38
2019-03-12T14:02:17.946Z,12.45
2019-03-12T14:04:48.903Z,12.51
2019-03-12T14:07:19.660Z,12.54
2019-03-12T14:09:50.383Z,12.62
2019-03-12T14:12:21.533Z,12.73
2019-03-12T14:14:52.447Z,12.62
2019-03-12T14:17:23.503Z,12.70
2019-03-12T14:19:54.111Z,12.72
2019-03-12T14:22:24.992Z,12.76
2019-03-12T14:24:55.809Z,12.56
2019-03-12T14:27:26.696Z,12.65
2019-03-12T14:29:57.384Z,12.64
2019-03-12T14:32:28.215Z,12.71
2019-03-12T14:34:59.307Z,12.68
2019-03-12T14:37:30.164Z,12.73
2019-03-12T14:40:00.906Z,12.75
2019-03-12T14:42:31.922Z,12.75
2019-03-12T14:45:02.807Z,12.76
2019-03-12T14:47:34.459Z,12.82
2019-03-12T14:50:05.708Z,12.90
2019-03-12T14:52:40.299Z,12.85
2019-03-12T14:55:11.287Z,12.91
2019-03-12T14:57:42.208Z,12.86
2019-03-12T15:00:20.035Z,12.82
2019-03-12T15:02:51.051Z,12.94
2019-03-12T15:05:22.400Z,13.04
2019-03-12T15:07:53.208Z,13.00
2019-03-12T15:10:24.096Z,12.99
2019-03-12T15:12:54.914Z,12.75
2019-03-12T15:15:25.684Z,12.77
2019-03-12T15:17:56.583Z,12.87
2019-03-12T15:20:27.467Z,12.94
2019-03-12T15:22:59.175Z,12.91
2019-03-12T15:25:30.223Z,12.99
2019-03-12T15:28:01.126Z,13.16
2019-03-12T15:30:31.795Z,13.10
2019-03-12T15:33:02.595Z,13.24
2019-03-12T15:35:33.874Z,13.17
2019-03-12T15:38:04.949Z,13.11
2019-03-12T15:40:35.860Z,13.15
2019-03-12T15:43:06.767Z,13.12
2019-03-12T15:45:37.658Z,13.08
2019-03-12T15:48:08.568Z,13.03
2019-03-12T15:50:39.534Z,12.88
2019-03-12T15:53:10.462Z,12.90
2019-03-12T15:55:42.346Z,12.85
2019-03-12T15:58:13.032Z,12.89
2019-03-12T16:00:43.719Z,13.03
2019-03-12T16:03:14.472Z,12.91
2019-03-12T16:05:45.308Z,12.87
2019-03-12T16:08:16.084Z,12.69
2019-03-12T16:10:57.256Z,12.58
2019-03-12T16:13:19.930Z,12.57
2019-03-12T16:15:50.696Z,12.62
2019-03-12T16:18:21.578Z,12.62
2019-03-12T16:20:52.471Z,12.60
2019-03-12T16:23:23.532Z,12.58
2019-03-12T16:25:54.519Z,12.63
2019-03-12T16:28:25.288Z,12.57
2019-03-12T16:30:56.178Z,12.49
2019-03-12T16:33:27.104Z,12.46
2019-03-12T16:35:58.035Z,12.48
2019-03-12T16:38:29.108Z,12.40
2019-03-12T16:40:59.992Z,12.36
2019-03-12T16:43:30.767Z,12.19
2019-03-12T16:46:01.658Z,11.98
2019-03-12T16:48:32.478Z,11.58
2019-03-12T16:51:03.474Z,11.29
2019-03-12T16:53:34.249Z,11.11
2019-03-12T16:56:04.745Z,11.06
2019-03-12T16:58:36.491Z,10.95
2019-03-12T17:01:07.392Z,10.85
2019-03-12T17:03:38.831Z,10.71
2019-03-12T17:06:10.631Z,10.58
2019-03-12T17:08:41.301Z,10.45
2019-03-12T17:11:12.100Z,10.30
2019-03-12T17:13:42.991Z,10.21
2019-03-12T17:16:13.735Z,10.10
2019-03-12T17:18:44.618Z,9.99
2019-03-12T17:21:15.508Z,9.95
2019-03-12T17:23:46.290Z,9.92
2019-03-12T17:26:17.126Z,9.86
2019-03-12T17:28:48.090Z,9.75
2019-03-12T17:31:18.992Z,9.65
2019-03-12T17:33:49.676Z,9.61
2019-03-12T17:36:20.526Z,9.56
2019-03-12T17:38:51.511Z,9.44
2019-03-12T17:41:22.208Z,9.38
2019-03-12T17:43:52.989Z,9.40
2019-03-12T17:46:23.906Z,9.38
2019-03-12T17:48:54.896Z,9.30
2019-03-12T17:51:25.688Z,9.30
2019-03-12T17:53:56.534Z,9.30
2019-03-12T17:56:27.325Z,9.37
2019-03-12T17:58:58.218Z,9.42
2019-03-12T18:01:30.060Z,9.57
2019-03-12T18:04:01.738Z,9.78
2019-03-12T18:06:35.173Z,9.90
2019-03-12T18:09:08.702Z,9.84
2019-03-12T18:11:39.998Z,9.77
2019-03-12T18:14:10.788Z,9.68
2019-03-12T18:16:41.713Z,9.60
2019-03-12T18:19:12.530Z,9.59
2019-03-12T18:21:43.335Z,9.85
2019-03-12T18:24:14.141Z,10.78
2019-03-12T18:26:45.078Z,11.20
2019-03-12T18:29:15.881Z,11.51
2019-03-12T18:31:48.774Z,11.66
2019-03-12T18:34:19.524Z,12.03
2019-03-12T18:36:51.332Z,12.07
2019-03-12T18:39:22.146Z,12.14
2019-03-12T18:41:55.830Z,12.29
2019-03-12T18:44:25.872Z,12.37
2019-03-12T18:46:56.745Z,12.24
2019-03-12T18:49:27.452Z,12.28
2019-03-12T18:51:58.288Z,12.36
2019-03-12T18:54:30.275Z,12.20
2019-03-12T18:57:01.441Z,12.27
2019-03-12T18:59:32.193Z,12.26
2019-03-12T19:02:04.154Z,12.42
2019-03-12T19:04:34.928Z,12.32
2019-03-12T19:07:05.829Z,12.52
2019-03-12T19:09:37.000Z,12.61
2019-03-12T19:12:07.776Z,12.61
2019-03-12T19:14:38.655Z,12.58
2019-03-12T19:17:09.686Z,12.57
2019-03-12T19:19:40.668Z,12.70
2019-03-12T19:22:11.624Z,12.68
2019-03-12T19:24:42.515Z,12.62
2019-03-12T19:27:13.309Z,12.66
2019-03-12T19:29:44.212Z,12.64
2019-03-12T19:32:39.806Z,12.56
2019-03-12T19:35:12.647Z,12.56
2019-03-12T19:37:43.516Z,12.58
2019-03-12T19:40:16.515Z,12.57
2019-03-12T19:42:47.303Z,12.48
2019-03-12T19:45:18.084Z,12.33
2019-03-12T19:47:48.875Z,12.48
2019-03-12T19:50:19.748Z,12.49
2019-03-12T19:52:50.685Z,12.42
2019-03-12T19:55:23.880Z,12.40
2019-03-12T19:57:54.907Z,12.26
2019-03-12T20:00:26.991Z,12.33
2019-03-12T20:03:10.255Z,12.23
2019-03-12T20:05:32.915Z,12.33
2019-03-12T20:08:03.780Z,12.31
2019-03-12T20:11:04.504Z,12.56
2019-03-12T20:14:34.427Z,12.47
2019-03-12T20:17:32.422Z,12.52
2019-03-12T20:21:11.397Z,12.27
2019-03-12T20:24:29.193Z,12.16
2019-03-12T20:27:58.841Z,12.14
2019-03-12T20:31:05.588Z,12.03
2019-03-12T20:34:31.411Z,12.03
2019-03-12T20:37:37.936Z,11.94
2019-03-12T20:40:43.016Z,11.97
2019-03-12T20:44:02.635Z,12.01
2019-03-12T20:47:18.883Z,12.08
2019-03-12T20:50:26.536Z,12.10
2019-03-12T20:53:32.663Z,12.29
2019-03-12T20:56:56.036Z,12.25
2019-03-12T21:00:02.296Z,12.23
2019-03-12T21:03:27.621Z,12.20
2019-03-12T21:06:42.072Z,12.25
2019-03-12T21:09:56.272Z,12.26
2019-03-12T21:13:22.970Z,12.34
2019-03-12T21:16:34.573Z,12.31
2019-03-12T21:19:57.421Z,12.42
2019-03-12T21:22:53.554Z,12.51
2019-03-12T21:26:05.502Z,12.71
2019-03-12T21:29:32.194Z,12.63
2019-03-12T21:32:03.235Z,12.59
2019-03-12T21:34:34.176Z,12.61
2019-03-12T21:37:05.227Z,12.58
2019-03-12T21:39:36.778Z,12.47
2019-03-12T21:42:08.212Z,12.58
2019-03-12T21:44:38.952Z,12.59
2019-03-12T21:47:09.915Z,12.66
2019-03-12T21:49:40.720Z,12.82
2019-03-12T21:52:11.487Z,12.76
2019-03-12T21:54:42.876Z,12.83
2019-03-12T21:57:13.822Z,12.90
2019-03-12T21:59:44.687Z,12.91
2019-03-12T22:02:15.627Z,13.10
2019-03-12T22:04:47.376Z,13.03
2019-03-12T22:07:18.243Z,12.99
2019-03-12T22:09:48.920Z,13.00
2019-03-12T22:12:19.788Z,13.02
2019-03-12T22:14:50.591Z,13.03
2019-03-12T22:17:21.444Z,13.13
2019-03-12T22:19:53.192Z,13.12
2019-03-12T22:22:31.215Z,13.15
2019-03-12T22:25:01.921Z,13.27
2019-03-12T22:27:32.695Z,13.22
2019-03-12T22:30:03.564Z,13.32
2019-03-12T22:32:36.263Z,13.35
2019-03-12T22:35:08.064Z,13.21
2019-03-12T22:37:39.014Z,13.26
2019-03-12T22:40:11.240Z,13.19
2019-03-12T22:42:42.058Z,13.22
2019-03-12T22:45:13.119Z,13.25
2019-03-12T22:47:43.801Z,13.17
2019-03-12T22:50:14.789Z,13.16
2019-03-12T22:52:45.616Z,13.10
2019-03-12T22:55:16.600Z,12.90
2019-03-12T22:57:47.477Z,12.65
2019-03-12T23:00:40.064Z,12.31
2019-03-12T23:03:28.753Z,11.78
2019-03-12T23:06:17.491Z,11.59
2019-03-12T23:09:07.708Z,11.41
2019-03-12T23:11:40.062Z,11.31
2019-03-12T23:14:11.031Z,11.31
2019-03-12T23:16:42.451Z,11.27
2019-03-12T23:19:13.588Z,11.19
2019-03-12T23:21:44.487Z,11.10
2019-03-12T23:24:15.534Z,11.02
2019-03-12T23:26:46.512Z,10.88
2019-03-12T23:29:17.663Z,10.79
2019-03-12T23:31:48.527Z,10.70
2019-03-12T23:34:19.394Z,10.63
2019-03-12T23:36:51.336Z,10.57
2019-03-12T23:39:22.084Z,10.61
2019-03-12T23:41:53.061Z,10.60
2019-03-12T23:44:24.916Z,10.44
2019-03-12T23:46:56.050Z,10.43
2019-03-12T23:49:27.140Z,10.32
2019-03-12T23:51:58.139Z,10.24
2019-03-12T23:54:29.167Z,10.18
2019-03-12T23:56:59.884Z,10.09
2019-03-12T23:59:30.715Z,10.04
